createdAt,value
2023-01-04T00:00:37.182Z,101413.31
2023-01-04T00:03:06.642Z,101413.81
2023-01-04T00:05:35.866Z,101418.50
2023-01-04T00:08:05.367Z,101415.41
2023-01-04T00:10:37.120Z,101416.25
2023-01-04T00:13:06.257Z,101412.66
2023-01-04T00:15:35.521Z,101408.53
2023-01-04T00:18:05.127Z,101403.44
2023-01-04T00:20:34.436Z,101405.34
2023-01-04T00:23:03.931Z,101402.03
2023-01-04T00:25:32.675Z,101400.41
2023-01-04T00:28:04.276Z,101404.56
2023-01-04T00:30:33.582Z,101409.03
2023-01-04T00:33:02.674Z,101410.03
2023-01-04T00:35:45.381Z,101417.69
2023-01-04T00:38:16.787Z,101422.00
2023-01-04T00:40:45.517Z,101426.56
2023-01-04T00:43:16.187Z,101424.47
2023-01-04T00:45:45.580Z,101419.13
2023-01-04T00:48:15.004Z,101429.59
2023-01-04T00:50:45.503Z,101431.22
2023-01-04T00:53:16.938Z,101426.41
2023-01-04T00:55:45.927Z,101424.53
2023-01-04T00:58:16.683Z,101441.06
2023-01-04T01:00:45.987Z,101445.06
2023-01-04T01:03:15.415Z,101440.75
2023-01-04T01:05:47.907Z,101443.44
2023-01-04T01:08:26.374Z,101452.78
2023-01-04T01:10:55.762Z,101449.72
2023-01-04T01:13:26.449Z,101445.22
2023-01-04T01:15:55.897Z,101448.84
2023-01-04T01:18:25.051Z,101447.44
2023-01-04T01:20:54.148Z,101438.94
2023-01-04T01:23:23.387Z,101440.91
2023-01-04T01:25:52.281Z,101450.22
2023-01-04T01:28:23.753Z,101450.16
2023-01-04T01:30:54.494Z,101455.25
2023-01-04T01:33:23.713Z,101456.22
2023-01-04T01:35:52.875Z,101452.50
2023-01-04T01:38:22.071Z,101447.16
2023-01-04T01:40:51.010Z,101448.97
2023-01-04T01:43:21.285Z,101442.00
2023-01-04T01:45:53.797Z,101429.63
2023-01-04T01:48:26.355Z,101430.41
2023-01-04T01:50:57.121Z,101422.91
2023-01-04T01:53:27.380Z,101416.06
2023-01-04T01:56:00.216Z,101417.78
2023-01-04T01:58:33.272Z,101420.16
2023-01-04T02:01:04.597Z,101416.41
2023-01-04T02:03:34.960Z,101427.84
2023-01-04T02:06:06.106Z,101420.50
2023-01-04T02:08:35.421Z,101424.53
2023-01-04T02:11:04.937Z,101429.69
2023-01-04T02:13:48.466Z,101422.44
2023-01-04T02:16:25.885Z,101417.50
2023-01-04T02:18:59.876Z,101421.84
2023-01-04T02:21:36.509Z,101421.06
2023-01-04T02:24:35.571Z,101416.59
2023-01-04T02:27:40.676Z,101407.06
2023-01-04T02:31:00.873Z,101405.25
2023-01-04T02:33:37.292Z,101406.03
2023-01-04T02:36:11.831Z,101397.50
2023-01-04T02:38:50.681Z,101404.47
2023-01-04T02:41:28.844Z,101403.16
2023-01-04T02:44:18.113Z,101396.44
2023-01-04T02:46:50.023Z,101402.63
2023-01-04T02:49:38.286Z,101392.38
2023-01-04T02:52:07.359Z,101386.63
2023-01-04T02:54:36.718Z,101390.91
2023-01-04T02:57:16.506Z,101396.81
2023-01-04T03:00:16.912Z,101405.16
2023-01-04T03:03:25.158Z,101397.84
2023-01-04T03:06:19.136Z,101399.28
2023-01-04T03:08:58.076Z,101388.88
2023-01-04T03:11:50.596Z,101385.28
2023-01-04T03:14:31.515Z,101380.84
2023-01-04T03:17:03.773Z,101376.63
2023-01-04T03:19:50.711Z,101374.28
2023-01-04T03:22:40.904Z,101362.81
2023-01-04T03:25:28.177Z,101358.63
2023-01-04T03:28:14.700Z,101354.78
2023-01-04T03:31:06.995Z,101343.47
2023-01-04T03:33:53.594Z,101353.16
2023-01-04T03:36:30.771Z,101352.28
2023-01-04T03:39:22.040Z,101356.47
2023-01-04T03:42:11.754Z,101353.78
2023-01-04T03:45:09.527Z,101360.66
2023-01-04T03:48:01.108Z,101350.59
2023-01-04T03:50:34.731Z,101343.94
2023-01-04T03:53:05.488Z,101339.00
2023-01-04T03:55:36.736Z,101337.06
2023-01-04T03:58:05.906Z,101339.81
2023-01-04T04:00:35.425Z,101335.38
2023-01-04T04:03:11.098Z,101339.00
2023-01-04T04:05:59.202Z,101341.94
2023-01-04T04:08:31.762Z,101343.03
2023-01-04T04:11:23.462Z,101335.00
2023-01-04T04:13:52.632Z,101341.00
2023-01-04T04:16:22.017Z,101324.22
2023-01-04T04:18:51.165Z,101331.44
2023-01-04T04:21:20.196Z,101331.69
2023-01-04T04:23:49.498Z,101327.66
2023-01-04T04:26:20.029Z,101337.13
2023-01-04T04:28:48.595Z,101328.44
2023-01-04T04:31:17.786Z,101325.75
2023-01-04T04:33:46.989Z,101321.03
2023-01-04T04:36:16.157Z,101320.22
2023-01-04T04:38:45.136Z,101319.38
2023-01-04T04:41:32.429Z,101320.97
2023-01-04T04:44:02.747Z,101323.13
2023-01-04T04:46:31.930Z,101319.84
2023-01-04T04:49:01.037Z,101323.19
2023-01-04T04:51:30.237Z,101319.97
2023-01-04T04:53:59.336Z,101325.91
2023-01-04T04:56:28.356Z,101315.50
2023-01-04T04:58:58.066Z,101313.13
2023-01-04T05:01:28.693Z,101312.72
2023-01-04T05:03:58.014Z,101310.81
2023-01-04T05:06:27.210Z,101321.13
2023-01-04T05:08:56.467Z,101326.81
2023-01-04T05:11:39.323Z,101317.97
2023-01-04T05:14:08.080Z,101322.59
2023-01-04T05:16:38.742Z,101323.88
2023-01-04T05:19:07.842Z,101323.97
2023-01-04T05:21:36.939Z,101320.88
2023-01-04T05:24:06.394Z,101313.38
2023-01-04T05:26:35.575Z,101305.75
2023-01-04T05:29:04.798Z,101302.28
2023-01-04T05:31:32.572Z,101294.91
2023-01-04T05:34:03.277Z,101293.97
2023-01-04T05:36:32.733Z,101298.00
2023-01-04T05:39:01.760Z,101296.69
2023-01-04T05:41:49.253Z,101290.34
2023-01-04T05:44:18.636Z,101275.34
2023-01-04T05:46:47.372Z,101279.66
2023-01-04T05:49:18.104Z,101281.53
2023-01-04T05:51:47.240Z,101280.44
2023-01-04T05:54:21.087Z,101281.41
2023-01-04T05:56:51.891Z,101278.19
2023-01-04T05:59:20.971Z,101270.44
2023-01-04T06:01:49.762Z,101271.66
2023-01-04T06:04:20.407Z,101267.06
2023-01-04T06:06:49.490Z,101272.63
2023-01-04T06:09:18.732Z,101267.47
2023-01-04T06:11:47.828Z,101272.44
2023-01-04T06:14:16.879Z,101269.97
2023-01-04T06:16:45.631Z,101258.19
2023-01-04T06:19:14.745Z,101254.97
2023-01-04T06:21:47.448Z,101244.59
2023-01-04T06:24:16.506Z,101241.00
2023-01-04T06:26:45.600Z,101235.63
2023-01-04T06:29:14.937Z,101232.69
2023-01-04T06:31:43.892Z,101224.97
2023-01-04T06:34:13.328Z,101219.81
2023-01-04T06:36:46.177Z,101220.81
2023-01-04T06:39:15.623Z,101223.41
2023-01-04T06:41:46.035Z,101226.44
2023-01-04T06:44:16.320Z,101212.50
2023-01-04T06:46:45.062Z,101212.94
2023-01-04T06:49:14.557Z,101215.19
2023-01-04T06:51:43.699Z,101209.97
2023-01-04T06:54:14.589Z,101214.09
2023-01-04T06:56:44.302Z,101214.53
2023-01-04T06:59:14.315Z,101215.59
2023-01-04T07:01:43.090Z,101211.22
2023-01-04T07:04:12.401Z,101223.13
2023-01-04T07:06:41.480Z,101225.69
2023-01-04T07:09:10.463Z,101235.22
2023-01-04T07:11:40.899Z,101239.25
2023-01-04T07:14:10.011Z,101240.63
2023-01-04T07:16:38.708Z,101243.31
2023-01-04T07:19:09.622Z,101246.88
2023-01-04T07:22:15.885Z,101239.88
2023-01-04T07:25:22.368Z,101242.94
2023-01-04T07:28:50.661Z,101233.84
2023-01-04T07:31:59.891Z,101234.13
2023-01-04T07:35:10.000Z,101228.63
2023-01-04T07:38:19.209Z,101230.19
2023-01-04T07:41:28.519Z,101220.00
2023-01-04T07:44:39.269Z,101216.06
2023-01-04T07:47:48.793Z,101210.66
2023-01-04T07:50:58.029Z,101200.78
2023-01-04T07:54:07.264Z,101204.19
2023-01-04T07:57:16.445Z,101199.75
2023-01-04T08:00:27.104Z,101194.59
2023-01-04T08:03:36.591Z,101189.31
2023-01-04T08:06:46.898Z,101171.56
2023-01-04T08:09:55.892Z,101175.06
2023-01-04T08:13:05.106Z,101169.81
2023-01-04T08:16:21.065Z,101167.72
2023-01-04T08:19:30.586Z,101153.97
2023-01-04T08:21:59.908Z,101150.38
2023-01-04T08:24:29.082Z,101147.25
2023-01-04T08:26:58.216Z,101165.72
2023-01-04T08:29:34.368Z,101149.75
2023-01-04T08:32:05.121Z,101145.50
2023-01-04T08:34:34.405Z,101138.47
2023-01-04T08:37:03.625Z,101132.00
2023-01-04T08:39:36.027Z,101124.31
2023-01-04T08:42:18.859Z,101121.53
2023-01-04T08:44:52.864Z,101129.72
2023-01-04T08:47:26.095Z,101128.94
2023-01-04T08:49:55.001Z,101129.38
2023-01-04T08:52:24.145Z,101122.78
2023-01-04T08:54:54.202Z,101121.19
2023-01-04T08:57:23.419Z,101130.38
2023-01-04T08:59:52.489Z,101126.19
2023-01-04T09:02:23.848Z,101129.50
2023-01-04T09:04:55.434Z,101123.91
2023-01-04T09:07:24.562Z,101118.13
2023-01-04T09:09:53.553Z,101110.19
2023-01-04T09:12:22.681Z,101093.94
2023-01-04T09:14:51.782Z,101097.16
2023-01-04T09:17:20.825Z,101084.06
2023-01-04T09:19:49.497Z,101079.34
2023-01-04T09:22:20.040Z,101067.19
2023-01-04T09:24:49.166Z,101058.47
2023-01-04T09:27:18.271Z,101058.84
2023-01-04T09:29:48.614Z,101062.69
2023-01-04T09:32:17.947Z,101060.34
2023-01-04T09:34:46.697Z,101055.50
2023-01-04T09:37:15.782Z,101047.41
2023-01-04T09:39:47.716Z,101049.28
2023-01-04T09:42:21.273Z,101041.31
2023-01-04T09:47:45.186Z,101027.81
2023-01-04T09:50:17.721Z,101016.72
2023-01-04T09:52:57.678Z,101010.53
2023-01-04T09:55:38.883Z,101014.66
2023-01-04T09:58:17.987Z,100991.03
2023-01-04T10:00:48.914Z,100993.31
2023-01-04T10:03:22.562Z,100993.72
2023-01-04T10:05:53.177Z,100991.03
2023-01-04T10:08:24.336Z,100993.88
2023-01-04T10:11:02.999Z,100982.25
2023-01-04T10:13:50.529Z,100973.00
2023-01-04T10:17:01.049Z,100967.72
2023-01-04T10:21:08.548Z,100960.34
2023-01-04T10:22:21.051Z,100942.19
2023-01-04T10:24:59.992Z,100936.84
2023-01-04T10:27:42.681Z,100927.53
2023-01-04T10:30:25.837Z,100933.56
2023-01-04T10:33:01.304Z,100921.78
2023-01-04T10:35:31.041Z,100907.25
2023-01-04T10:38:02.257Z,100883.63
2023-01-04T10:40:39.455Z,100877.16
2023-01-04T10:43:17.280Z,100865.63
2023-01-04T10:45:52.605Z,100860.75
2023-01-04T10:48:28.164Z,100839.41
2023-01-04T10:51:09.437Z,100830.53
2023-01-04T10:53:44.810Z,100837.75
2023-01-04T10:56:25.382Z,100827.25
2023-01-04T10:59:04.480Z,100811.75
2023-01-04T11:01:36.410Z,100796.53
2023-01-04T11:04:11.373Z,100790.44
2023-01-04T11:06:44.134Z,100790.75
2023-01-04T11:09:25.171Z,100789.31
2023-01-04T11:11:57.239Z,100782.03
2023-01-04T11:14:33.350Z,100783.03
2023-01-04T11:17:07.457Z,100785.09
2023-01-04T11:19:36.729Z,100787.53
2023-01-04T11:22:12.296Z,100765.50
2023-01-04T11:25:00.345Z,100756.16
2023-01-04T11:27:33.736Z,100756.19
2023-01-04T11:30:06.333Z,100742.72
2023-01-04T11:32:40.824Z,100745.44
2023-01-04T11:35:10.421Z,100726.31
2023-01-04T11:37:41.132Z,100714.50
2023-01-04T11:40:19.571Z,100713.56
2023-01-04T11:42:49.973Z,100707.22
2023-01-04T11:45:24.206Z,100691.31
2023-01-04T11:47:55.217Z,100680.03
2023-01-04T11:50:41.456Z,100673.78
2023-01-04T11:53:27.943Z,100672.25
2023-01-04T11:56:16.699Z,100657.94
2023-01-04T11:58:47.296Z,100639.19
2023-01-04T12:01:26.998Z,100632.38
2023-01-04T12:03:56.764Z,100619.28
2023-01-04T12:06:33.517Z,100617.25
2023-01-04T12:09:02.710Z,100614.22
2023-01-04T12:11:33.789Z,100610.88
2023-01-04T12:14:03.496Z,100599.66
2023-01-04T12:16:46.387Z,100600.13
2023-01-04T12:19:16.665Z,100605.97
2023-01-04T12:21:45.667Z,100601.47
2023-01-04T12:24:19.408Z,100594.47
2023-01-04T12:26:49.352Z,100581.63
2023-01-04T12:29:41.725Z,100576.88
2023-01-04T12:32:46.432Z,100564.44
2023-01-04T12:36:06.996Z,100552.50
2023-01-04T12:39:09.326Z,100541.53
2023-01-04T12:42:20.023Z,100534.59
2023-01-04T12:45:17.098Z,100544.94
2023-01-04T12:48:09.744Z,100536.81
2023-01-04T12:51:32.329Z,100531.16
2023-01-04T12:54:04.230Z,100523.09
2023-01-04T12:57:12.833Z,100512.09
2023-01-04T12:59:55.064Z,100503.66
2023-01-04T13:02:26.638Z,100492.38
2023-01-04T13:05:33.756Z,100484.84
2023-01-04T13:07:49.190Z,100475.25
2023-01-04T13:10:23.286Z,100455.44
2023-01-04T13:12:59.797Z,100447.34
2023-01-04T13:15:41.533Z,100452.06
2023-01-04T13:18:30.200Z,100441.81
2023-01-04T13:21:01.837Z,100444.13
2023-01-04T13:23:31.268Z,100431.97
2023-01-04T13:26:33.168Z,100422.13
2023-01-04T13:29:19.299Z,100420.00
2023-01-04T13:31:51.870Z,100417.72
2023-01-04T13:34:23.983Z,100408.56
2023-01-04T13:37:06.894Z,100404.16
2023-01-04T13:39:36.781Z,100400.53
2023-01-04T13:42:07.164Z,100396.13
2023-01-04T13:45:21.922Z,100384.59
2023-01-04T13:47:44.109Z,100366.66
2023-01-04T13:50:28.616Z,100350.63
2023-01-04T13:53:06.924Z,100352.19
2023-01-04T13:55:39.049Z,100351.66
2023-01-04T13:58:16.407Z,100357.72
2023-01-04T14:00:46.815Z,100345.03
2023-01-04T14:03:35.416Z,100326.88
2023-01-04T14:06:14.599Z,100327.03
2023-01-04T14:08:49.696Z,100327.09
2023-01-04T14:11:35.678Z,100329.94
2023-01-04T14:14:04.610Z,100316.25
2023-01-04T14:16:33.813Z,100306.31
2023-01-04T14:19:34.181Z,100308.06
2023-01-04T14:22:02.880Z,100293.28
2023-01-04T14:27:34.152Z,100288.47
2023-01-04T14:30:05.644Z,100277.56
2023-01-04T14:32:34.625Z,100262.28
2023-01-04T14:35:12.160Z,100258.47
2023-01-04T14:37:40.830Z,100257.38
2023-01-04T14:40:19.978Z,100254.00
2023-01-04T14:42:48.974Z,100248.66
2023-01-04T14:45:18.097Z,100242.25
2023-01-04T14:47:49.099Z,100235.94
2023-01-04T14:50:18.940Z,100219.63
2023-01-04T14:52:52.661Z,100178.19
2023-01-04T14:55:24.943Z,100184.75
2023-01-04T14:57:57.023Z,100213.16
2023-01-04T15:00:26.094Z,100155.56
2023-01-04T15:02:55.274Z,100164.16
2023-01-04T15:05:24.581Z,100143.19
2023-01-04T15:07:54.029Z,100151.38
2023-01-04T15:10:26.305Z,100146.03
2023-01-04T15:12:55.447Z,100141.06
2023-01-04T15:15:24.421Z,100128.44
2023-01-04T15:17:53.497Z,100109.22
2023-01-04T15:20:23.545Z,100102.19
2023-01-04T15:22:52.535Z,100094.38
2023-01-04T15:25:21.539Z,100094.38
2023-01-04T15:27:52.897Z,100084.13
2023-01-04T15:30:24.190Z,100090.75
2023-01-04T15:32:53.189Z,100086.97
2023-01-04T15:35:22.361Z,100075.69
2023-01-04T15:37:51.585Z,100071.28
2023-01-04T15:40:20.959Z,100071.59
2023-01-04T15:42:59.338Z,100071.53
2023-01-04T15:45:29.676Z,100050.91
2023-01-04T15:48:03.299Z,100042.41
2023-01-04T15:50:35.705Z,100031.34
2023-01-04T15:53:04.746Z,100044.41
2023-01-04T15:55:36.524Z,100046.50
2023-01-04T15:58:07.425Z,100028.34
2023-01-04T16:00:39.366Z,100039.09
2023-01-04T16:03:08.530Z,100021.53
2023-01-04T16:05:37.758Z,100017.06
2023-01-04T16:08:07.437Z,100019.28
2023-01-04T16:10:36.844Z,100003.84
2023-01-04T16:13:07.707Z,99989.06
2023-01-04T16:15:38.199Z,99983.13
2023-01-04T16:18:07.403Z,99980.09
2023-01-04T16:20:36.490Z,99993.84
2023-01-04T16:23:05.598Z,99971.66
2023-01-04T16:25:34.690Z,99971.38
2023-01-04T16:28:03.895Z,99968.59
2023-01-04T16:30:36.170Z,99962.91
2023-01-04T16:33:06.366Z,99953.66
2023-01-04T16:35:36.384Z,99943.59
2023-01-04T16:38:05.748Z,99946.50
2023-01-04T16:40:34.550Z,99944.97
2023-01-04T16:43:03.933Z,99928.66
2023-01-04T16:45:34.488Z,99930.63
2023-01-04T16:48:03.617Z,99927.06
2023-01-04T16:50:35.016Z,99902.50
2023-01-04T16:53:04.137Z,99901.47
2023-01-04T16:55:32.873Z,99905.28
2023-01-04T16:58:01.979Z,99887.66
2023-01-04T17:00:31.046Z,99886.59
2023-01-04T17:03:01.500Z,99882.50
2023-01-04T17:05:30.673Z,99892.19
2023-01-04T17:07:59.822Z,99872.94
2023-01-04T17:10:29.841Z,99875.69
2023-01-04T17:12:59.064Z,99882.31
2023-01-04T17:15:44.553Z,99866.16
2023-01-04T17:18:17.766Z,99867.03
2023-01-04T17:20:54.057Z,99859.22
2023-01-04T17:23:23.447Z,99852.00
2023-01-04T17:25:52.556Z,99836.78
2023-01-04T17:28:25.011Z,99813.63
2023-01-04T17:30:54.481Z,99817.19
2023-01-04T17:33:25.561Z,99820.72
2023-01-04T17:35:58.065Z,99809.16
2023-01-04T17:38:27.405Z,99808.22
2023-01-04T17:40:56.121Z,99794.78
2023-01-04T17:43:25.317Z,99793.66
2023-01-04T17:45:54.574Z,99787.41
2023-01-04T17:48:25.255Z,99788.22
2023-01-04T17:50:54.640Z,99784.47
2023-01-04T17:53:25.160Z,99764.63
2023-01-04T17:55:54.129Z,99764.81
2023-01-04T17:58:24.429Z,99744.84
2023-01-04T18:00:53.558Z,99741.88
2023-01-04T18:03:22.942Z,99740.38
2023-01-04T18:06:07.107Z,99724.06
2023-01-04T18:08:44.364Z,99713.00
2023-01-04T18:11:14.065Z,99724.28
2023-01-04T18:13:45.462Z,99714.59
2023-01-04T18:16:25.306Z,99696.56
2023-01-04T18:18:57.982Z,99696.78
2023-01-04T18:21:30.810Z,99680.88
2023-01-04T18:27:20.512Z,99680.53
2023-01-04T18:29:45.387Z,99668.78
2023-01-04T18:32:18.268Z,99669.84
2023-01-04T18:34:47.475Z,99686.31
2023-01-04T18:37:19.678Z,99661.25
2023-01-04T18:39:49.218Z,99647.34
2023-01-04T18:42:18.506Z,99639.91
2023-01-04T18:44:49.927Z,99637.41
2023-01-04T18:47:22.387Z,99638.94
2023-01-04T18:49:51.642Z,99627.59
2023-01-04T18:52:22.386Z,99626.72
2023-01-04T18:54:51.516Z,99629.75
2023-01-04T18:57:20.807Z,99619.28
2023-01-04T18:59:51.753Z,99609.59
2023-01-04T19:02:22.253Z,99592.53
2023-01-04T19:04:50.967Z,99587.16
2023-01-04T19:07:22.043Z,99593.28
2023-01-04T19:09:51.601Z,99583.44
2023-01-04T19:12:22.295Z,99579.78
2023-01-04T19:14:51.824Z,99576.84
2023-01-04T19:17:24.669Z,99571.69
2023-01-04T19:19:53.734Z,99583.44
2023-01-04T19:22:24.582Z,99570.91
2023-01-04T19:24:53.837Z,99565.84
2023-01-04T19:27:23.187Z,99563.00
2023-01-04T19:29:53.602Z,99558.41
2023-01-04T19:32:22.561Z,99536.31
2023-01-04T19:34:51.529Z,99542.16
2023-01-04T19:37:20.887Z,99535.34
2023-01-04T19:39:51.757Z,99540.16
2023-01-04T19:42:20.907Z,99537.69
2023-01-04T19:44:50.145Z,99543.13
2023-01-04T19:47:19.361Z,99535.53
2023-01-04T19:49:50.182Z,99519.56
2023-01-04T19:52:19.246Z,99516.44
2023-01-04T19:54:48.539Z,99521.56
2023-01-04T19:57:19.208Z,99510.28
2023-01-04T19:59:48.681Z,99513.31
2023-01-04T20:02:18.091Z,99509.63
2023-01-04T20:04:47.339Z,99521.28
2023-01-04T20:07:16.871Z,99507.06
2023-01-04T20:09:46.126Z,99515.28
2023-01-04T20:12:15.653Z,99499.44
2023-01-04T20:14:47.058Z,99495.72
2023-01-04T20:17:16.568Z,99491.91
2023-01-04T20:19:45.472Z,99486.91
2023-01-04T20:22:14.832Z,99484.13
2023-01-04T20:24:44.129Z,99494.75
2023-01-04T20:27:13.582Z,99499.03
2023-01-04T20:29:42.802Z,99474.69
2023-01-04T20:32:13.752Z,99483.97
2023-01-04T20:34:43.841Z,99469.75
2023-01-04T20:37:13.276Z,99487.69
2023-01-04T20:39:42.499Z,99465.41
2023-01-04T20:42:28.856Z,99466.16
2023-01-04T20:44:58.236Z,99465.50
2023-01-04T20:47:29.285Z,99457.31
2023-01-04T20:49:58.045Z,99465.34
2023-01-04T20:52:27.276Z,99457.53
2023-01-04T20:54:56.350Z,99441.88
2023-01-04T20:57:25.561Z,99445.16
2023-01-04T20:59:55.233Z,99432.31
2023-01-04T21:02:24.492Z,99451.16
2023-01-04T21:04:54.744Z,99439.06
2023-01-04T21:07:23.811Z,99437.63
2023-01-04T21:09:52.893Z,99435.09
2023-01-04T21:12:22.062Z,99427.09
2023-01-04T21:14:51.195Z,99432.00
2023-01-04T21:17:20.535Z,99411.75
2023-01-04T21:19:49.920Z,99411.59
2023-01-04T21:22:22.754Z,99418.28
2023-01-04T21:24:51.944Z,99416.03
2023-01-04T21:27:21.054Z,99403.31
2023-01-04T21:29:50.219Z,99400.47
2023-01-04T21:32:19.330Z,99399.97
2023-01-04T21:34:48.328Z,99381.50
2023-01-04T21:37:17.439Z,99368.78
2023-01-04T21:39:47.968Z,99371.50
2023-01-04T21:42:16.979Z,99364.06
2023-01-04T21:44:46.972Z,99352.22
2023-01-04T21:47:16.051Z,99342.41
2023-01-04T21:49:44.912Z,99350.28
2023-01-04T21:52:14.249Z,99352.59
2023-01-04T21:54:43.411Z,99353.41
2023-01-04T21:57:14.984Z,99360.09
2023-01-04T21:59:44.045Z,99350.28
2023-01-04T22:02:17.131Z,99335.44
2023-01-04T22:04:46.626Z,99347.28
2023-01-04T22:07:15.769Z,99346.22
2023-01-04T22:09:44.859Z,99347.94
2023-01-04T22:12:17.303Z,99350.47
2023-01-04T22:14:47.170Z,99343.59
2023-01-04T22:17:16.445Z,99321.25
2023-01-04T22:19:45.311Z,99327.41
2023-01-04T22:22:14.373Z,99315.38
2023-01-04T22:24:43.583Z,99317.47
2023-01-04T22:27:13.271Z,99302.16
2023-01-04T22:29:43.845Z,99303.56
2023-01-04T22:32:13.512Z,99299.75
2023-01-04T22:34:42.578Z,99295.31
2023-01-04T22:37:11.810Z,99296.16
2023-01-04T22:39:40.982Z,99287.94
2023-01-04T22:42:10.914Z,99288.34
2023-01-04T22:44:40.107Z,99280.94
2023-01-04T22:47:10.640Z,99268.91
2023-01-04T22:49:39.849Z,99260.53
2023-01-04T22:52:09.086Z,99251.75
2023-01-04T22:54:40.536Z,99252.31
2023-01-04T22:57:09.832Z,99245.72
2023-01-04T22:59:38.927Z,99240.03
2023-01-04T23:02:09.711Z,99240.13
2023-01-04T23:04:38.305Z,99229.78
2023-01-04T23:07:07.514Z,99214.19
2023-01-04T23:09:36.859Z,99216.47
2023-01-04T23:12:06.770Z,99213.53
2023-01-04T23:14:36.245Z,99194.63
2023-01-04T23:17:05.628Z,99195.38
2023-01-04T23:19:37.611Z,99198.09
2023-01-04T23:22:07.412Z,99195.09
2023-01-04T23:24:38.040Z,99188.06
2023-01-04T23:27:07.631Z,99187.38
2023-01-04T23:29:37.199Z,99179.63
2023-01-04T23:32:09.394Z,99178.09
2023-01-04T23:34:39.738Z,99181.03
2023-01-04T23:37:08.982Z,99169.72
2023-01-04T23:39:38.292Z,99164.19
2023-01-04T23:42:08.620Z,99161.84
2023-01-04T23:44:37.643Z,99164.03
2023-01-04T23:47:10.320Z,99152.91
2023-01-04T23:49:40.511Z,99158.06
2023-01-04T23:52:12.153Z,99156.38
2023-01-04T23:54:41.970Z,99146.75
2023-01-04T23:57:11.001Z,99141.31
2023-01-04T23:59:40.112Z,99147.84
